sensor_id;sensor_type;location;lat;lon;timestamp;temperature;humidity
52036;DHT22;38046;49.448;32.074;2022-12-29T00:01:31;4.70;72.50
52036;DHT22;38046;49.448;32.074;2022-12-29T00:03:57;4.70;72.80
52036;DHT22;38046;49.448;32.074;2022-12-29T00:06:24;4.70;73.00
52036;DHT22;38046;49.448;32.074;2022-12-29T00:08:49;4.60;73.00
52036;DHT22;38046;49.448;32.074;2022-12-29T00:11:18;4.70;73.30
52036;DHT22;38046;49.448;32.074;2022-12-29T00:13:45;4.70;73.10
52036;DHT22;38046;49.448;32.074;2022-12-29T00:16:30;4.80;73.00
52036;DHT22;38046;49.448;32.074;2022-12-29T00:18:56;4.80;73.10
52036;DHT22;38046;49.448;32.074;2022-12-29T00:21:23;4.80;72.70
52036;DHT22;38046;49.448;32.074;2022-12-29T00:24:15;4.90;72.80
52036;DHT22;38046;49.448;32.074;2022-12-29T00:29:47;4.90;72.80
52036;DHT22;38046;49.448;32.074;2022-12-29T00:32:32;4.90;72.80
52036;DHT22;38046;49.448;32.074;2022-12-29T00:35:29;5.00;72.80
52036;DHT22;38046;49.448;32.074;2022-12-29T00:37:57;5.00;72.90
52036;DHT22;38046;49.448;32.074;2022-12-29T00:40:42;4.90;72.90
52036;DHT22;38046;49.448;32.074;2022-12-29T00:43:27;4.90;73.00
52036;DHT22;38046;49.448;32.074;2022-12-29T00:46:11;4.90;73.30
52036;DHT22;38046;49.448;32.074;2022-12-29T00:48:36;4.90;73.40
52036;DHT22;38046;49.448;32.074;2022-12-29T00:51:21;4.90;73.50
52036;DHT22;38046;49.448;32.074;2022-12-29T00:53:46;4.80;73.50
52036;DHT22;38046;49.448;32.074;2022-12-29T00:56:12;4.90;73.70
52036;DHT22;38046;49.448;32.074;2022-12-29T00:58:37;4.80;73.50
52036;DHT22;38046;49.448;32.074;2022-12-29T01:01:04;4.90;73.50
52036;DHT22;38046;49.448;32.074;2022-12-29T01:03:30;4.90;73.70
52036;DHT22;38046;49.448;32.074;2022-12-29T01:05:56;5.00;73.60
52036;DHT22;38046;49.448;32.074;2022-12-29T01:08:22;5.00;73.50
52036;DHT22;38046;49.448;32.074;2022-12-29T01:11:08;5.10;73.40
52036;DHT22;38046;49.448;32.074;2022-12-29T01:13:34;5.10;73.00
52036;DHT22;38046;49.448;32.074;2022-12-29T01:16:00;5.20;73.00
52036;DHT22;38046;49.448;32.074;2022-12-29T01:18:26;5.20;73.00
52036;DHT22;38046;49.448;32.074;2022-12-29T01:21:04;5.20;72.90
52036;DHT22;38046;49.448;32.074;2022-12-29T01:23:31;5.20;72.60
52036;DHT22;38046;49.448;32.074;2022-12-29T01:25:57;5.20;72.40
52036;DHT22;38046;49.448;32.074;2022-12-29T01:28:33;5.20;72.30
52036;DHT22;38046;49.448;32.074;2022-12-29T01:31:00;5.20;72.20
52036;DHT22;38046;49.448;32.074;2022-12-29T01:33:26;5.20;72.10
52036;DHT22;38046;49.448;32.074;2022-12-29T01:35:52;5.20;72.30
52036;DHT22;38046;49.448;32.074;2022-12-29T01:38:17;5.10;72.30
52036;DHT22;38046;49.448;32.074;2022-12-29T01:40:45;5.20;72.30
52036;DHT22;38046;49.448;32.074;2022-12-29T01:43:12;5.20;72.70
52036;DHT22;38046;49.448;32.074;2022-12-29T01:45:44;5.20;72.70
52036;DHT22;38046;49.448;32.074;2022-12-29T01:48:12;5.20;72.60
52036;DHT22;38046;49.448;32.074;2022-12-29T01:50:43;5.10;72.40
52036;DHT22;38046;49.448;32.074;2022-12-29T01:53:19;5.10;72.40
52036;DHT22;38046;49.448;32.074;2022-12-29T01:55:50;5.10;72.40
52036;DHT22;38046;49.448;32.074;2022-12-29T01:58:20;5.10;72.50
52036;DHT22;38046;49.448;32.074;2022-12-29T02:00:46;5.10;72.60
52036;DHT22;38046;49.448;32.074;2022-12-29T02:03:12;5.10;72.60
52036;DHT22;38046;49.448;32.074;2022-12-29T02:08:11;5.00;72.50
52036;DHT22;38046;49.448;32.074;2022-12-29T02:10:37;5.00;72.50
52036;DHT22;38046;49.448;32.074;2022-12-29T02:13:04;5.00;72.60
52036;DHT22;38046;49.448;32.074;2022-12-29T02:30:04;4.80;72.70
52036;DHT22;38046;49.448;32.074;2022-12-29T02:32:37;4.70;72.70
52036;DHT22;38046;49.448;32.074;2022-12-29T02:38:12;4.80;73.00
52036;DHT22;38046;49.448;32.074;2022-12-29T02:40:53;4.80;72.90
52036;DHT22;38046;49.448;32.074;2022-12-29T02:43:35;4.80;73.00
52036;DHT22;38046;49.448;32.074;2022-12-29T02:49:19;4.80;73.10
52036;DHT22;38046;49.448;32.074;2022-12-29T02:54:29;4.80;73.10
52036;DHT22;38046;49.448;32.074;2022-12-29T02:57:10;4.70;73.10
52036;DHT22;38046;49.448;32.074;2022-12-29T02:59:37;4.70;73.90
52036;DHT22;38046;49.448;32.074;2022-12-29T03:12:54;4.70;73.60
52036;DHT22;38046;49.448;32.074;2022-12-29T03:15:46;4.80;73.40
52036;DHT22;38046;49.448;32.074;2022-12-29T03:21:29;4.90;73.80
52036;DHT22;38046;49.448;32.074;2022-12-29T03:24:17;4.90;72.90
52036;DHT22;38046;49.448;32.074;2022-12-29T03:26:44;5.00;72.90
52036;DHT22;38046;49.448;32.074;2022-12-29T03:29:12;5.00;72.70
52036;DHT22;38046;49.448;32.074;2022-12-29T03:31:39;5.00;72.70
52036;DHT22;38046;49.448;32.074;2022-12-29T03:34:06;5.00;72.60
52036;DHT22;38046;49.448;32.074;2022-12-29T03:36:40;5.10;72.50
52036;DHT22;38046;49.448;32.074;2022-12-29T03:39:11;5.10;72.20
52036;DHT22;38046;49.448;32.074;2022-12-29T03:41:40;5.10;72.10
52036;DHT22;38046;49.448;32.074;2022-12-29T03:44:07;5.00;71.90
52036;DHT22;38046;49.448;32.074;2022-12-29T03:46:33;5.00;71.80
52036;DHT22;38046;49.448;32.074;2022-12-29T03:48:59;5.00;71.70
52036;DHT22;38046;49.448;32.074;2022-12-29T03:51:25;4.90;71.70
52036;DHT22;38046;49.448;32.074;2022-12-29T03:53:50;4.90;71.80
52036;DHT22;38046;49.448;32.074;2022-12-29T03:56:16;4.80;71.90
52036;DHT22;38046;49.448;32.074;2022-12-29T03:58:41;4.80;72.10
52036;DHT22;38046;49.448;32.074;2022-12-29T04:01:07;4.80;72.00
52036;DHT22;38046;49.448;32.074;2022-12-29T04:03:33;4.80;72.10
52036;DHT22;38046;49.448;32.074;2022-12-29T04:05:59;4.80;72.10
52036;DHT22;38046;49.448;32.074;2022-12-29T04:08:25;4.80;72.20
52036;DHT22;38046;49.448;32.074;2022-12-29T04:10:50;4.70;72.10
52036;DHT22;38046;49.448;32.074;2022-12-29T04:13:16;4.70;72.00
52036;DHT22;38046;49.448;32.074;2022-12-29T04:15:43;4.70;71.90
52036;DHT22;38046;49.448;32.074;2022-12-29T04:18:08;4.70;71.90
52036;DHT22;38046;49.448;32.074;2022-12-29T04:20:34;4.60;71.80
52036;DHT22;38046;49.448;32.074;2022-12-29T04:23:19;4.60;71.80
52036;DHT22;38046;49.448;32.074;2022-12-29T04:25:48;4.50;71.80
52036;DHT22;38046;49.448;32.074;2022-12-29T04:28:14;4.50;72.00
52036;DHT22;38046;49.448;32.074;2022-12-29T04:30:40;4.40;71.90
52036;DHT22;38046;49.448;32.074;2022-12-29T04:33:06;4.40;72.00
52036;DHT22;38046;49.448;32.074;2022-12-29T04:35:31;4.40;72.00
52036;DHT22;38046;49.448;32.074;2022-12-29T04:37:57;4.30;72.00
52036;DHT22;38046;49.448;32.074;2022-12-29T04:40:23;4.40;72.10
52036;DHT22;38046;49.448;32.074;2022-12-29T04:42:49;4.30;72.00
52036;DHT22;38046;49.448;32.074;2022-12-29T04:45:15;4.30;72.10
52036;DHT22;38046;49.448;32.074;2022-12-29T04:47:41;4.20;72.10
52036;DHT22;38046;49.448;32.074;2022-12-29T04:50:07;4.20;72.10
52036;DHT22;38046;49.448;32.074;2022-12-29T04:52:33;4.20;72.10
52036;DHT22;38046;49.448;32.074;2022-12-29T04:54:58;4.20;72.20
52036;DHT22;38046;49.448;32.074;2022-12-29T04:57:24;4.20;72.20
52036;DHT22;38046;49.448;32.074;2022-12-29T04:59:50;4.10;72.20
52036;DHT22;38046;49.448;32.074;2022-12-29T05:02:16;4.10;72.20
52036;DHT22;38046;49.448;32.074;2022-12-29T05:04:42;4.10;72.20
52036;DHT22;38046;49.448;32.074;2022-12-29T05:07:08;4.10;72.30
52036;DHT22;38046;49.448;32.074;2022-12-29T05:09:33;4.00;72.20
52036;DHT22;38046;49.448;32.074;2022-12-29T05:11:59;4.00;72.10
52036;DHT22;38046;49.448;32.074;2022-12-29T05:14:25;4.00;72.20
52036;DHT22;38046;49.448;32.074;2022-12-29T05:16:51;4.00;72.30
52036;DHT22;38046;49.448;32.074;2022-12-29T05:19:16;4.00;72.30
52036;DHT22;38046;49.448;32.074;2022-12-29T05:21:42;4.00;72.40
52036;DHT22;38046;49.448;32.074;2022-12-29T05:24:08;4.00;72.40
52036;DHT22;38046;49.448;32.074;2022-12-29T05:26:34;4.00;72.40
52036;DHT22;38046;49.448;32.074;2022-12-29T05:29:00;4.00;72.30
52036;DHT22;38046;49.448;32.074;2022-12-29T05:31:27;4.00;72.20
52036;DHT22;38046;49.448;32.074;2022-12-29T05:33:52;4.00;72.10
52036;DHT22;38046;49.448;32.074;2022-12-29T05:36:18;4.00;72.00
52036;DHT22;38046;49.448;32.074;2022-12-29T05:38:44;4.00;71.80
52036;DHT22;38046;49.448;32.074;2022-12-29T05:41:10;4.00;71.80
52036;DHT22;38046;49.448;32.074;2022-12-29T05:43:36;4.00;71.70
52036;DHT22;38046;49.448;32.074;2022-12-29T05:46:02;4.00;71.70
52036;DHT22;38046;49.448;32.074;2022-12-29T05:48:28;4.00;71.80
52036;DHT22;38046;49.448;32.074;2022-12-29T05:50:54;4.00;71.70
52036;DHT22;38046;49.448;32.074;2022-12-29T05:53:20;4.00;71.90
52036;DHT22;38046;49.448;32.074;2022-12-29T05:55:48;4.00;71.80
52036;DHT22;38046;49.448;32.074;2022-12-29T05:58:15;4.00;71.80
52036;DHT22;38046;49.448;32.074;2022-12-29T06:00:41;4.00;72.00
52036;DHT22;38046;49.448;32.074;2022-12-29T06:03:07;4.00;72.00
52036;DHT22;38046;49.448;32.074;2022-12-29T06:05:33;4.00;71.90
52036;DHT22;38046;49.448;32.074;2022-12-29T06:07:59;4.00;72.00
52036;DHT22;38046;49.448;32.074;2022-12-29T06:10:24;4.00;72.00
52036;DHT22;38046;49.448;32.074;2022-12-29T06:12:50;4.00;71.90
52036;DHT22;38046;49.448;32.074;2022-12-29T06:15:17;4.00;71.90
52036;DHT22;38046;49.448;32.074;2022-12-29T06:17:42;4.10;72.00
52036;DHT22;38046;49.448;32.074;2022-12-29T06:20:09;4.10;71.90
52036;DHT22;38046;49.448;32.074;2022-12-29T06:22:35;4.20;71.90
52036;DHT22;38046;49.448;32.074;2022-12-29T06:25:01;4.20;71.70
52036;DHT22;38046;49.448;32.074;2022-12-29T06:27:27;4.20;71.70
52036;DHT22;38046;49.448;32.074;2022-12-29T06:29:53;4.30;71.80
52036;DHT22;38046;49.448;32.074;2022-12-29T06:32:19;4.40;71.70
52036;DHT22;38046;49.448;32.074;2022-12-29T06:34:44;4.40;71.40
52036;DHT22;38046;49.448;32.074;2022-12-29T06:37:10;4.50;71.20
52036;DHT22;38046;49.448;32.074;2022-12-29T06:39:36;4.50;71.10
52036;DHT22;38046;49.448;32.074;2022-12-29T06:42:02;4.50;71.10
52036;DHT22;38046;49.448;32.074;2022-12-29T06:44:28;4.60;71.00
52036;DHT22;38046;49.448;32.074;2022-12-29T06:46:53;4.70;70.80
52036;DHT22;38046;49.448;32.074;2022-12-29T06:49:19;4.70;70.50
52036;DHT22;38046;49.448;32.074;2022-12-29T06:51:45;4.70;70.40
52036;DHT22;38046;49.448;32.074;2022-12-29T06:54:11;4.70;70.20
52036;DHT22;38046;49.448;32.074;2022-12-29T06:56:36;4.70;70.20
52036;DHT22;38046;49.448;32.074;2022-12-29T06:59:02;4.70;70.00
52036;DHT22;38046;49.448;32.074;2022-12-29T07:01:28;4.70;69.90
52036;DHT22;38046;49.448;32.074;2022-12-29T07:03:54;4.70;70.00
52036;DHT22;38046;49.448;32.074;2022-12-29T07:06:20;4.70;70.20
52036;DHT22;38046;49.448;32.074;2022-12-29T07:08:46;4.70;70.10
52036;DHT22;38046;49.448;32.074;2022-12-29T07:11:12;4.60;70.10
52036;DHT22;38046;49.448;32.074;2022-12-29T07:13:37;4.60;70.00
52036;DHT22;38046;49.448;32.074;2022-12-29T07:16:08;4.60;70.10
52036;DHT22;38046;49.448;32.074;2022-12-29T07:18:34;4.60;70.00
52036;DHT22;38046;49.448;32.074;2022-12-29T07:21:00;4.60;70.00
52036;DHT22;38046;49.448;32.074;2022-12-29T07:23:26;4.60;70.10
52036;DHT22;38046;49.448;32.074;2022-12-29T07:26:05;4.50;70.20
52036;DHT22;38046;49.448;32.074;2022-12-29T07:28:32;4.60;70.20
52036;DHT22;38046;49.448;32.074;2022-12-29T07:30:59;4.50;70.20
52036;DHT22;38046;49.448;32.074;2022-12-29T07:33:25;4.50;70.40
52036;DHT22;38046;49.448;32.074;2022-12-29T07:35:50;4.60;70.50
52036;DHT22;38046;49.448;32.074;2022-12-29T07:38:16;4.60;70.50
52036;DHT22;38046;49.448;32.074;2022-12-29T07:40:42;4.60;70.50
52036;DHT22;38046;49.448;32.074;2022-12-29T07:43:08;4.60;70.20
52036;DHT22;38046;49.448;32.074;2022-12-29T07:45:34;4.60;70.20
52036;DHT22;38046;49.448;32.074;2022-12-29T07:47:59;4.70;70.20
52036;DHT22;38046;49.448;32.074;2022-12-29T07:50:25;4.70;70.20
52036;DHT22;38046;49.448;32.074;2022-12-29T07:52:51;4.80;70.10
52036;DHT22;38046;49.448;32.074;2022-12-29T07:55:16;4.80;70.10
52036;DHT22;38046;49.448;32.074;2022-12-29T07:57:42;4.80;70.10
52036;DHT22;38046;49.448;32.074;2022-12-29T08:00:09;4.80;70.00
52036;DHT22;38046;49.448;32.074;2022-12-29T08:02:35;4.80;70.00
52036;DHT22;38046;49.448;32.074;2022-12-29T08:05:01;4.90;70.10
52036;DHT22;38046;49.448;32.074;2022-12-29T08:07:26;4.90;69.90
52036;DHT22;38046;49.448;32.074;2022-12-29T08:09:52;4.90;69.80
52036;DHT22;38046;49.448;32.074;2022-12-29T08:12:18;4.90;69.80
52036;DHT22;38046;49.448;32.074;2022-12-29T08:14:44;4.90;69.80
52036;DHT22;38046;49.448;32.074;2022-12-29T08:17:09;5.00;69.70
52036;DHT22;38046;49.448;32.074;2022-12-29T08:19:36;5.00;69.80
52036;DHT22;38046;49.448;32.074;2022-12-29T08:22:01;5.00;69.80
52036;DHT22;38046;49.448;32.074;2022-12-29T08:24:27;5.10;69.90
52036;DHT22;38046;49.448;32.074;2022-12-29T08:26:53;5.10;69.70
52036;DHT22;38046;49.448;32.074;2022-12-29T08:29:18;5.20;69.50
52036;DHT22;38046;49.448;32.074;2022-12-29T08:31:45;5.30;69.60
52036;DHT22;38046;49.448;32.074;2022-12-29T08:34:10;5.30;69.30
52036;DHT22;38046;49.448;32.074;2022-12-29T08:36:36;5.40;69.10
52036;DHT22;38046;49.448;32.074;2022-12-29T08:39:02;5.40;69.00
52036;DHT22;38046;49.448;32.074;2022-12-29T08:41:27;5.40;68.80
52036;DHT22;38046;49.448;32.074;2022-12-29T08:43:53;5.40;68.50
52036;DHT22;38046;49.448;32.074;2022-12-29T08:46:19;5.40;68.30
52036;DHT22;38046;49.448;32.074;2022-12-29T08:48:45;5.40;68.20
52036;DHT22;38046;49.448;32.074;2022-12-29T08:51:11;5.40;68.10
52036;DHT22;38046;49.448;32.074;2022-12-29T08:53:36;5.30;68.20
52036;DHT22;38046;49.448;32.074;2022-12-29T08:56:02;5.30;68.40
52036;DHT22;38046;49.448;32.074;2022-12-29T08:58:29;5.30;68.50
52036;DHT22;38046;49.448;32.074;2022-12-29T09:00:55;5.40;68.60
52036;DHT22;38046;49.448;32.074;2022-12-29T09:03:22;5.40;68.60
52036;DHT22;38046;49.448;32.074;2022-12-29T09:05:49;5.50;68.70
52036;DHT22;38046;49.448;32.074;2022-12-29T09:08:16;5.50;68.60
52036;DHT22;38046;49.448;32.074;2022-12-29T09:10:42;5.60;68.70
52036;DHT22;38046;49.448;32.074;2022-12-29T09:13:08;5.70;68.60
52036;DHT22;38046;49.448;32.074;2022-12-29T09:15:34;5.70;68.50
52036;DHT22;38046;49.448;32.074;2022-12-29T09:18:00;5.80;68.40
52036;DHT22;38046;49.448;32.074;2022-12-29T09:20:26;5.80;68.40
52036;DHT22;38046;49.448;32.074;2022-12-29T09:22:51;5.90;68.50
52036;DHT22;38046;49.448;32.074;2022-12-29T09:25:17;6.00;68.40
52036;DHT22;38046;49.448;32.074;2022-12-29T09:27:43;6.00;68.30
52036;DHT22;38046;49.448;32.074;2022-12-29T09:30:11;6.10;68.10
52036;DHT22;38046;49.448;32.074;2022-12-29T09:32:37;6.10;67.70
52036;DHT22;38046;49.448;32.074;2022-12-29T09:35:03;6.10;67.60
52036;DHT22;38046;49.448;32.074;2022-12-29T09:37:28;6.10;67.90
52036;DHT22;38046;49.448;32.074;2022-12-29T09:39:54;6.10;67.80
52036;DHT22;38046;49.448;32.074;2022-12-29T09:47:57;6.30;67.80
52036;DHT22;38046;49.448;32.074;2022-12-29T09:50:32;6.40;67.50
52036;DHT22;38046;49.448;32.074;2022-12-29T09:53:15;6.40;67.10
52036;DHT22;38046;49.448;32.074;2022-12-29T09:55:49;6.50;67.00
52036;DHT22;38046;49.448;32.074;2022-12-29T09:58:36;6.50;66.70
52036;DHT22;38046;49.448;32.074;2022-12-29T10:04:28;6.50;66.10
52036;DHT22;38046;49.448;32.074;2022-12-29T10:07:08;6.60;66.50
52036;DHT22;38046;49.448;32.074;2022-12-29T10:13:00;6.60;66.60
52036;DHT22;38046;49.448;32.074;2022-12-29T10:24:04;6.80;66.50
52036;DHT22;38046;49.448;32.074;2022-12-29T10:26:37;6.80;66.60
52036;DHT22;38046;49.448;32.074;2022-12-29T10:29:16;6.80;66.60
52036;DHT22;38046;49.448;32.074;2022-12-29T10:31:47;6.90;66.60
52036;DHT22;38046;49.448;32.074;2022-12-29T10:34:21;6.90;66.60
52036;DHT22;38046;49.448;32.074;2022-12-29T10:36:51;6.90;66.40
52036;DHT22;38046;49.448;32.074;2022-12-29T10:39:30;7.00;66.00
52036;DHT22;38046;49.448;32.074;2022-12-29T10:42:35;7.00;66.10
52036;DHT22;38046;49.448;32.074;2022-12-29T10:45:03;6.90;66.10
52036;DHT22;38046;49.448;32.074;2022-12-29T10:47:34;6.90;66.20
52036;DHT22;38046;49.448;32.074;2022-12-29T10:50:02;7.00;65.90
52036;DHT22;38046;49.448;32.074;2022-12-29T10:52:28;6.90;66.20
52036;DHT22;38046;49.448;32.074;2022-12-29T10:55:15;6.80;65.90
52036;DHT22;38046;49.448;32.074;2022-12-29T10:57:43;6.90;66.00
52036;DHT22;38046;49.448;32.074;2022-12-29T11:00:15;6.80;65.90
52036;DHT22;38046;49.448;32.074;2022-12-29T11:08:23;6.70;65.80
52036;DHT22;38046;49.448;32.074;2022-12-29T11:11:04;6.70;66.10
52036;DHT22;38046;49.448;32.074;2022-12-29T11:13:32;6.70;66.00
52036;DHT22;38046;49.448;32.074;2022-12-29T11:15:58;6.70;66.00
52036;DHT22;38046;49.448;32.074;2022-12-29T11:18:31;6.70;66.00
52036;DHT22;38046;49.448;32.074;2022-12-29T11:20:59;6.70;66.00
52036;DHT22;38046;49.448;32.074;2022-12-29T11:23:40;6.60;66.20
52036;DHT22;38046;49.448;32.074;2022-12-29T11:26:21;6.60;66.40
52036;DHT22;38046;49.448;32.074;2022-12-29T11:29:03;6.60;66.40
52036;DHT22;38046;49.448;32.074;2022-12-29T11:31:30;6.70;66.40
52036;DHT22;38046;49.448;32.074;2022-12-29T11:33:56;6.70;66.40
52036;DHT22;38046;49.448;32.074;2022-12-29T11:36:23;6.70;66.40
52036;DHT22;38046;49.448;32.074;2022-12-29T11:38:51;6.70;66.50
52036;DHT22;38046;49.448;32.074;2022-12-29T11:41:25;6.80;66.50
52036;DHT22;38046;49.448;32.074;2022-12-29T11:43:53;6.80;66.40
52036;DHT22;38046;49.448;32.074;2022-12-29T11:46:33;6.90;66.30
52036;DHT22;38046;49.448;32.074;2022-12-29T11:48:59;6.90;66.20
52036;DHT22;38046;49.448;32.074;2022-12-29T11:51:30;6.90;66.20
52036;DHT22;38046;49.448;32.074;2022-12-29T11:54:00;7.00;66.10
52036;DHT22;38046;49.448;32.074;2022-12-29T11:56:34;6.90;66.20
52036;DHT22;38046;49.448;32.074;2022-12-29T12:04:41;7.00;66.10
52036;DHT22;38046;49.448;32.074;2022-12-29T12:09:36;6.90;66.20
52036;DHT22;38046;49.448;32.074;2022-12-29T12:12:03;7.00;66.20
52036;DHT22;38046;49.448;32.074;2022-12-29T12:14:50;6.90;66.20
52036;DHT22;38046;49.448;32.074;2022-12-29T12:17:25;6.90;66.30
52036;DHT22;38046;49.448;32.074;2022-12-29T12:20:03;6.90;66.30
52036;DHT22;38046;49.448;32.074;2022-12-29T12:23:30;6.90;66.30
52036;DHT22;38046;49.448;32.074;2022-12-29T12:25:41;6.90;66.30
52036;DHT22;38046;49.448;32.074;2022-12-29T12:30:45;6.90;66.40
52036;DHT22;38046;49.448;32.074;2022-12-29T12:33:39;6.90;66.60
52036;DHT22;38046;49.448;32.074;2022-12-29T12:47:20;6.90;66.60
52036;DHT22;38046;49.448;32.074;2022-12-29T12:50:07;6.90;66.60
52036;DHT22;38046;49.448;32.074;2022-12-29T12:55:49;6.80;66.80
52036;DHT22;38046;49.448;32.074;2022-12-29T12:58:43;6.80;66.80
52036;DHT22;38046;49.448;32.074;2022-12-29T13:01:29;6.80;66.90
52036;DHT22;38046;49.448;32.074;2022-12-29T13:14:53;6.80;67.30
52036;DHT22;38046;49.448;32.074;2022-12-29T13:20:02;6.70;67.40
52036;DHT22;38046;49.448;32.074;2022-12-29T13:22:38;6.70;67.40
52036;DHT22;38046;49.448;32.074;2022-12-29T13:36:45;6.50;67.90
52036;DHT22;38046;49.448;32.074;2022-12-29T13:39:25;6.50;68.00
52036;DHT22;38046;49.448;32.074;2022-12-29T13:41:54;6.40;68.20
52036;DHT22;38046;49.448;32.074;2022-12-29T13:44:43;6.40;68.40
52036;DHT22;38046;49.448;32.074;2022-12-29T13:47:35;6.40;68.50
52036;DHT22;38046;49.448;32.074;2022-12-29T13:50:04;6.40;68.60
52036;DHT22;38046;49.448;32.074;2022-12-29T13:52:41;6.40;68.70
52036;DHT22;38046;49.448;32.074;2022-12-29T13:55:27;6.40;68.60
52036;DHT22;38046;49.448;32.074;2022-12-29T13:58:27;6.40;68.70
52036;DHT22;38046;49.448;32.074;2022-12-29T14:00:58;6.40;68.80
52036;DHT22;38046;49.448;32.074;2022-12-29T14:03:55;6.30;68.90
52036;DHT22;38046;49.448;32.074;2022-12-29T14:06:32;6.40;68.80
52036;DHT22;38046;49.448;32.074;2022-12-29T14:09:01;6.40;69.00
52036;DHT22;38046;49.448;32.074;2022-12-29T14:11:39;6.40;69.00
52036;DHT22;38046;49.448;32.074;2022-12-29T14:16:47;6.30;69.10
52036;DHT22;38046;49.448;32.074;2022-12-29T14:19:21;6.30;69.20
52036;DHT22;38046;49.448;32.074;2022-12-29T14:22:03;6.20;69.30
52036;DHT22;38046;49.448;32.074;2022-12-29T14:26:58;6.20;69.50
52036;DHT22;38046;49.448;32.074;2022-12-29T14:31:50;6.10;69.70
52036;DHT22;38046;49.448;32.074;2022-12-29T14:34:36;6.20;69.80
52036;DHT22;38046;49.448;32.074;2022-12-29T14:37:03;6.10;69.80
52036;DHT22;38046;49.448;32.074;2022-12-29T14:39:38;6.20;69.90
52036;DHT22;38046;49.448;32.074;2022-12-29T14:47:39;6.20;70.10
52036;DHT22;38046;49.448;32.074;2022-12-29T14:53:02;6.20;70.20
52036;DHT22;38046;49.448;32.074;2022-12-29T14:55:44;6.20;70.30
52036;DHT22;38046;49.448;32.074;2022-12-29T14:58:31;6.20;70.30
52036;DHT22;38046;49.448;32.074;2022-12-29T15:00:59;6.20;70.40
52036;DHT22;38046;49.448;32.074;2022-12-29T15:03:43;6.20;70.50
52036;DHT22;38046;49.448;32.074;2022-12-29T15:06:12;6.30;70.40
52036;DHT22;38046;49.448;32.074;2022-12-29T15:14:00;6.20;70.20
52036;DHT22;38046;49.448;32.074;2022-12-29T15:16:34;6.20;70.30
52036;DHT22;38046;49.448;32.074;2022-12-29T15:19:02;6.20;70.40
52036;DHT22;38046;49.448;32.074;2022-12-29T15:21:35;6.20;70.50
52036;DHT22;38046;49.448;32.074;2022-12-29T15:24:02;6.10;70.40
52036;DHT22;38046;49.448;32.074;2022-12-29T15:26:46;6.10;70.50
52036;DHT22;38046;49.448;32.074;2022-12-29T15:29:38;6.10;70.50
52036;DHT22;38046;49.448;32.074;2022-12-29T15:34:44;6.00;70.70
52036;DHT22;38046;49.448;32.074;2022-12-29T15:37:15;6.00;70.60
52036;DHT22;38046;49.448;32.074;2022-12-29T15:39:41;5.90;70.70
52036;DHT22;38046;49.448;32.074;2022-12-29T15:45:06;5.90;71.00
52036;DHT22;38046;49.448;32.074;2022-12-29T15:47:34;5.80;71.10
52036;DHT22;38046;49.448;32.074;2022-12-29T15:50:20;5.80;71.20
52036;DHT22;38046;49.448;32.074;2022-12-29T15:52:47;5.80;71.30
52036;DHT22;38046;49.448;32.074;2022-12-29T15:55:27;5.80;71.50
52036;DHT22;38046;49.448;32.074;2022-12-29T15:57:58;5.80;71.50
52036;DHT22;38046;49.448;32.074;2022-12-29T16:00:27;5.70;71.70
52036;DHT22;38046;49.448;32.074;2022-12-29T16:04:45;5.70;71.30
52036;DHT22;38046;49.448;32.074;2022-12-29T16:07:29;5.70;71.70
52036;DHT22;38046;49.448;32.074;2022-12-29T16:09:57;5.70;71.70
52036;DHT22;38046;49.448;32.074;2022-12-29T16:12:35;5.70;71.90
52036;DHT22;38046;49.448;32.074;2022-12-29T16:15:03;5.70;72.10
52036;DHT22;38046;49.448;32.074;2022-12-29T16:17:33;5.70;72.20
52036;DHT22;38046;49.448;32.074;2022-12-29T16:20:02;5.80;72.90
52036;DHT22;38046;49.448;32.074;2022-12-29T16:22:42;5.80;72.20
52036;DHT22;38046;49.448;32.074;2022-12-29T16:25:24;5.80;72.20
52036;DHT22;38046;49.448;32.074;2022-12-29T16:27:51;5.90;72.30
52036;DHT22;38046;49.448;32.074;2022-12-29T16:30:28;5.90;72.30
52036;DHT22;38046;49.448;32.074;2022-12-29T16:32:56;5.90;72.30
52036;DHT22;38046;49.448;32.074;2022-12-29T16:35:28;5.90;72.40
52036;DHT22;38046;49.448;32.074;2022-12-29T16:38:14;5.90;72.50
52036;DHT22;38046;49.448;32.074;2022-12-29T16:41:01;5.90;72.50
52036;DHT22;38046;49.448;32.074;2022-12-29T16:43:35;5.90;72.50
52036;DHT22;38046;49.448;32.074;2022-12-29T16:46:27;5.90;72.60
52036;DHT22;38046;49.448;32.074;2022-12-29T16:48:55;5.90;72.60
52036;DHT22;38046;49.448;32.074;2022-12-29T16:51:33;5.90;72.70
52036;DHT22;38046;49.448;32.074;2022-12-29T16:54:01;5.90;72.60
52036;DHT22;38046;49.448;32.074;2022-12-29T16:56:30;5.90;72.70
52036;DHT22;38046;49.448;32.074;2022-12-29T16:59:36;5.90;72.70
52036;DHT22;38046;49.448;32.074;2022-12-29T17:02:12;5.90;72.80
52036;DHT22;38046;49.448;32.074;2022-12-29T17:04:38;5.90;73.00
52036;DHT22;38046;49.448;32.074;2022-12-29T17:07:15;5.90;73.10
52036;DHT22;38046;49.448;32.074;2022-12-29T17:09:41;6.00;73.30
52036;DHT22;38046;49.448;32.074;2022-12-29T17:12:10;6.00;73.20
52036;DHT22;38046;49.448;32.074;2022-12-29T17:17:39;6.00;73.00
52036;DHT22;38046;49.448;32.074;2022-12-29T17:22:39;6.10;73.00
52036;DHT22;38046;49.448;32.074;2022-12-29T17:25:05;6.10;72.90
52036;DHT22;38046;49.448;32.074;2022-12-29T17:27:41;6.10;72.90
52036;DHT22;38046;49.448;32.074;2022-12-29T17:30:26;6.10;72.90
52036;DHT22;38046;49.448;32.074;2022-12-29T17:32:59;6.10;72.80
52036;DHT22;38046;49.448;32.074;2022-12-29T17:35:25;6.00;73.10
52036;DHT22;38046;49.448;32.074;2022-12-29T17:37:51;6.00;73.20
52036;DHT22;38046;49.448;32.074;2022-12-29T17:40:25;6.00;73.20
52036;DHT22;38046;49.448;32.074;2022-12-29T17:42:53;6.00;73.10
52036;DHT22;38046;49.448;32.074;2022-12-29T17:45:28;6.00;73.10
52036;DHT22;38046;49.448;32.074;2022-12-29T17:47:54;6.00;73.00
52036;DHT22;38046;49.448;32.074;2022-12-29T17:50:25;6.00;73.00
52036;DHT22;38046;49.448;32.074;2022-12-29T17:52:55;6.00;72.90
52036;DHT22;38046;49.448;32.074;2022-12-29T17:55:22;6.00;72.90
52036;DHT22;38046;49.448;32.074;2022-12-29T17:57:49;6.10;72.90
52036;DHT22;38046;49.448;32.074;2022-12-29T18:02:42;6.00;72.70
52036;DHT22;38046;49.448;32.074;2022-12-29T18:05:28;6.10;72.80
52036;DHT22;38046;49.448;32.074;2022-12-29T18:07:57;6.10;72.70
52036;DHT22;38046;49.448;32.074;2022-12-29T18:10:25;6.10;72.60
52036;DHT22;38046;49.448;32.074;2022-12-29T18:12:53;6.10;72.60
52036;DHT22;38046;49.448;32.074;2022-12-29T18:15:22;6.10;72.60
52036;DHT22;38046;49.448;32.074;2022-12-29T18:17:49;6.10;72.60
52036;DHT22;38046;49.448;32.074;2022-12-29T18:20:18;6.10;72.70
52036;DHT22;38046;49.448;32.074;2022-12-29T18:22:43;6.10;72.70
52036;DHT22;38046;49.448;32.074;2022-12-29T18:27:47;6.10;72.80
52036;DHT22;38046;49.448;32.074;2022-12-29T18:30:12;6.00;72.90